Time;durP1;ratioP1;P1;durP2;ratioP2;P2;SDS_P1;SDS_P2;PMS_P1;PMS_P2;Temp;Humidity;BMP_temperature;BMP_pressure;BME280_temperature;BME280_humidity;BME280_pressure;Samples;Min_cycle;Max_cycle;Signal;HPM_P1;HPM_P2
2024/02/17 00:02:22;;;;;;;55.80;31.30;;;;;;;;;;136408;1282;22190;-81
2024/02/17 00:05:23;;;;;;;55.20;30.70;;;;;;;;;;136456;1290;22127;-81
2024/02/17 00:08:24;;;;;;;49.40;29.70;;;;;;;;;;136444;1290;22205;-81
2024/02/17 00:11:26;;;;;;;50.90;31.10;;;;;;;;;;136441;1290;22633;-81
2024/02/17 00:14:27;;;;;;;53.40;30.90;;;;;;;;;;136424;1290;22531;-81
2024/02/17 00:17:28;;;;;;;77.60;33.10;;;;;;;;;;136448;1290;22603;-81
2024/02/17 00:20:29;;;;;;;57.30;31.00;;;;;;;;;;136414;1290;22611;-81
2024/02/17 00:23:31;;;;;;;54.10;31.10;;;;;;;;;;136415;1290;22045;-81
2024/02/17 00:26:34;;;;;;;49.90;30.80;;;;;;;;;;136424;1290;22480;-81
2024/02/17 00:29:35;;;;;;;60.30;29.20;;;;;;;;;;136437;1290;22043;-81
2024/02/17 00:32:36;;;;;;;52.30;29.20;;;;;;;;;;136457;1290;22552;-81
2024/02/17 00:35:37;;;;;;;46.60;26.80;;;;;;;;;;136449;1290;22147;-81
2024/02/17 00:38:38;;;;;;;47.00;28.20;;;;;;;;;;136430;1290;22592;-81
2024/02/17 00:41:42;;;;;;;46.70;27.70;;;;;;;;;;136380;1290;22093;-81
2024/02/17 00:44:43;;;;;;;48.70;29.00;;;;;;;;;;136430;1290;22601;-82
2024/02/17 00:47:44;;;;;;;51.90;29.40;;;;;;;;;;136429;1290;22076;-81
2024/02/17 00:50:45;;;;;;;49.50;28.60;;;;;;;;;;136268;1290;206619;-81
2024/02/17 00:53:46;;;;;;;53.70;29.60;;;;;;;;;;136441;1286;22506;-81
2024/02/17 00:56:47;;;;;;;52.20;29.40;;;;;;;;;;136422;1290;22067;-81
2024/02/17 00:59:48;;;;;;;51.90;29.40;;;;;;;;;;136426;1290;22473;-82
2024/02/17 01:02:49;;;;;;;48.80;29.50;;;;;;;;;;136437;1286;22113;-81
2024/02/17 01:05:51;;;;;;;52.60;29.40;;;;;;;;;;136421;1290;22072;-81
2024/02/17 01:08:52;;;;;;;56.80;30.20;;;;;;;;;;136431;1290;22053;-81
2024/02/17 01:11:53;;;;;;;49.10;29.60;;;;;;;;;;136427;1290;22030;-81
2024/02/17 01:14:54;;;;;;;56.00;29.70;;;;;;;;;;136434;1290;22143;-81
2024/02/17 01:17:55;;;;;;;57.00;32.00;;;;;;;;;;136446;1290;22173;-81
2024/02/17 01:20:56;;;;;;;53.40;31.20;;;;;;;;;;136408;1290;22102;-81
2024/02/17 01:23:58;;;;;;;55.10;31.80;;;;;;;;;;136407;1290;22209;-81
2024/02/17 01:26:59;;;;;;;50.10;29.60;;;;;;;;;;136410;1290;22031;-81
2024/02/17 01:30:00;;;;;;;49.70;29.80;;;;;;;;;;136415;1290;22152;-81
2024/02/17 01:33:01;;;;;;;51.50;29.90;;;;;;;;;;136401;1290;22487;-81
2024/02/17 01:36:05;;;;;;;53.50;30.60;;;;;;;;;;136449;1283;22096;-81
2024/02/17 01:39:06;;;;;;;54.50;29.80;;;;;;;;;;136451;1290;21949;-81
2024/02/17 01:42:10;;;;;;;49.50;29.10;;;;;;;;;;136452;1290;22070;-82
2024/02/17 01:45:12;;;;;;;50.00;30.00;;;;;;;;;;136446;1290;21925;-81
2024/02/17 01:48:13;;;;;;;51.40;28.90;;;;;;;;;;136442;1290;22096;-82
2024/02/17 01:51:14;;;;;;;47.90;28.20;;;;;;;;;;136478;1290;22058;-81
2024/02/17 01:54:15;;;;;;;54.70;30.60;;;;;;;;;;136546;1290;22085;-81
2024/02/17 01:57:17;;;;;;;48.00;28.70;;;;;;;;;;136539;1290;22138;-81
2024/02/17 02:00:21;;;;;;;83.30;30.00;;;;;;;;;;136527;1290;22084;-81
2024/02/17 02:03:22;;;;;;;120.70;33.00;;;;;;;;;;136523;1290;22077;-82
2024/02/17 02:06:24;;;;;;;49.60;26.70;;;;;;;;;;136526;1290;22047;-82
2024/02/17 02:09:25;;;;;;;47.20;27.60;;;;;;;;;;136474;1290;22089;-83
2024/02/17 02:12:28;;;;;;;51.50;27.90;;;;;;;;;;136453;1290;22118;-80
2024/02/17 02:15:29;;;;;;;45.30;26.80;;;;;;;;;;136455;1290;22083;-81
2024/02/17 02:18:31;;;;;;;69.30;28.70;;;;;;;;;;136458;1290;22088;-81
2024/02/17 02:21:32;;;;;;;42.30;25.60;;;;;;;;;;136438;1290;22196;-81
2024/02/17 02:24:33;;;;;;;43.80;25.60;;;;;;;;;;136415;1290;22084;-81
2024/02/17 02:27:34;;;;;;;45.80;26.60;;;;;;;;;;136429;1290;22419;-81
2024/02/17 02:30:37;;;;;;;42.10;24.90;;;;;;;;;;136410;1290;22631;-81
2024/02/17 02:33:38;;;;;;;44.00;25.70;;;;;;;;;;136435;1290;22594;-80
2024/02/17 02:36:41;;;;;;;45.20;25.80;;;;;;;;;;136442;1290;22092;-81
2024/02/17 02:39:42;;;;;;;40.50;25.10;;;;;;;;;;136440;1286;22549;-81
2024/02/17 02:42:43;;;;;;;36.70;22.30;;;;;;;;;;136440;1290;22444;-81
2024/02/17 02:45:45;;;;;;;36.70;22.20;;;;;;;;;;136439;1290;22148;-81
2024/02/17 02:48:46;;;;;;;32.80;22.10;;;;;;;;;;136427;1290;22499;-81
2024/02/17 02:51:47;;;;;;;56.50;23.90;;;;;;;;;;136434;1290;22132;-81
2024/02/17 02:54:48;;;;;;;33.40;17.50;;;;;;;;;;136414;1290;22200;-81
2024/02/17 02:57:49;;;;;;;23.40;15.80;;;;;;;;;;136414;1289;22171;-81
2024/02/17 03:00:50;;;;;;;24.40;15.40;;;;;;;;;;136420;1290;22127;-81
2024/02/17 03:03:51;;;;;;;22.80;14.40;;;;;;;;;;136401;1279;22106;-81
2024/02/17 03:06:52;;;;;;;18.90;14.80;;;;;;;;;;136426;1290;22076;-81
2024/02/17 03:09:53;;;;;;;22.50;14.70;;;;;;;;;;136422;1290;22074;-81
2024/02/17 03:12:56;;;;;;;20.50;14.10;;;;;;;;;;136455;1287;22128;-80
2024/02/17 03:15:58;;;;;;;20.20;13.40;;;;;;;;;;136465;1290;22067;-81
2024/02/17 03:18:59;;;;;;;16.90;11.90;;;;;;;;;;136422;1286;22053;-81
2024/02/17 03:22:00;;;;;;;18.30;13.30;;;;;;;;;;136414;1290;22092;-81
2024/02/17 03:25:02;;;;;;;20.50;14.00;;;;;;;;;;136445;1278;22049;-82
2024/02/17 03:28:05;;;;;;;20.10;13.80;;;;;;;;;;136449;1290;22100;-82
2024/02/17 03:31:07;;;;;;;20.20;12.90;;;;;;;;;;136458;1290;22445;-81
2024/02/17 03:34:08;;;;;;;20.60;12.30;;;;;;;;;;136432;1290;22093;-81
2024/02/17 03:37:09;;;;;;;16.80;13.40;;;;;;;;;;136437;1290;22092;-82
2024/02/17 03:40:11;;;;;;;21.80;12.60;;;;;;;;;;136470;1286;22262;-81
2024/02/17 03:43:12;;;;;;;20.20;12.40;;;;;;;;;;136445;1290;22067;-81
2024/02/17 03:46:13;;;;;;;17.10;12.30;;;;;;;;;;136440;1286;22283;-81
2024/02/17 03:49:14;;;;;;;16.70;12.90;;;;;;;;;;136439;1290;22093;-81
2024/02/17 03:52:15;;;;;;;18.60;11.80;;;;;;;;;;136453;1290;22073;-82
2024/02/17 03:55:19;;;;;;;17.70;11.80;;;;;;;;;;136441;1290;22066;-81
2024/02/17 03:58:20;;;;;;;15.20;11.00;;;;;;;;;;136430;1290;22128;-81
2024/02/17 04:01:26;;;;;;;17.00;10.40;;;;;;;;;;136439;1290;22072;-82
2024/02/17 04:04:28;;;;;;;15.10;11.50;;;;;;;;;;136413;1290;22600;-82
2024/02/17 04:07:29;;;;;;;16.70;10.80;;;;;;;;;;136448;1290;22257;-81
2024/02/17 04:10:30;;;;;;;14.20;11.10;;;;;;;;;;136425;1290;22240;-81
2024/02/17 04:13:31;;;;;;;23.20;12.10;;;;;;;;;;136400;1290;22319;-81
2024/02/17 04:16:32;;;;;;;16.80;11.20;;;;;;;;;;136436;1290;22225;-81
2024/02/17 04:19:34;;;;;;;13.60;10.40;;;;;;;;;;136423;1290;22080;-81
2024/02/17 04:22:35;;;;;;;14.50;11.50;;;;;;;;;;136415;1290;22114;-81
2024/02/17 04:25:36;;;;;;;15.00;10.40;;;;;;;;;;136416;1290;22063;-82
2024/02/17 04:28:39;;;;;;;24.40;11.10;;;;;;;;;;136375;1290;22212;-81
2024/02/17 04:31:41;;;;;;;13.60;10.10;;;;;;;;;;136419;1290;22147;-81
2024/02/17 04:34:42;;;;;;;19.60;11.90;;;;;;;;;;136438;1290;22584;-83
2024/02/17 04:37:44;;;;;;;13.40;11.00;;;;;;;;;;136434;1290;22072;-81
2024/02/17 04:40:45;;;;;;;16.90;11.60;;;;;;;;;;136419;1290;22160;-81
2024/02/17 04:43:46;;;;;;;18.00;10.80;;;;;;;;;;136424;1290;22637;-81
2024/02/17 04:46:48;;;;;;;18.60;10.90;;;;;;;;;;136422;1290;22176;-81
2024/02/17 04:49:49;;;;;;;14.90;10.60;;;;;;;;;;136399;1290;22142;-81
2024/02/17 04:52:50;;;;;;;17.70;10.80;;;;;;;;;;136387;1290;22150;-80
2024/02/17 04:55:51;;;;;;;14.50;10.80;;;;;;;;;;136460;1290;22162;-81
2024/02/17 04:58:52;;;;;;;39.90;12.20;;;;;;;;;;136537;1290;22138;-80
2024/02/17 05:01:53;;;;;;;14.30;10.70;;;;;;;;;;136429;1291;22150;-79
2024/02/17 05:04:54;;;;;;;14.00;10.60;;;;;;;;;;136065;1296;22132;-80
2024/02/17 05:07:55;;;;;;;14.00;10.50;;;;;;;;;;136066;1296;22149;-79
2024/02/17 05:10:57;;;;;;;16.90;10.50;;;;;;;;;;135952;1296;22147;-80
2024/02/17 05:13:58;;;;;;;12.50;10.70;;;;;;;;;;135801;1296;22151;-80
2024/02/17 05:16:59;;;;;;;14.20;10.80;;;;;;;;;;135768;1296;22447;-79
2024/02/17 05:20:03;;;;;;;19.00;11.50;;;;;;;;;;135735;1296;22548;-79
2024/02/17 05:23:05;;;;;;;17.00;11.10;;;;;;;;;;135742;1296;22105;-80
2024/02/17 05:26:06;;;;;;;15.20;10.80;;;;;;;;;;135721;1296;22165;-81
2024/02/17 05:29:07;;;;;;;14.70;11.70;;;;;;;;;;135692;1296;22149;-80
2024/02/17 05:32:08;;;;;;;18.20;11.30;;;;;;;;;;135744;1296;22157;-80
2024/02/17 05:35:09;;;;;;;14.10;10.50;;;;;;;;;;135734;1283;22141;-80
2024/02/17 05:38:10;;;;;;;14.40;11.10;;;;;;;;;;135756;1296;22216;-80
2024/02/17 05:41:12;;;;;;;15.00;10.80;;;;;;;;;;135758;1296;22139;-80
2024/02/17 05:44:13;;;;;;;15.90;11.20;;;;;;;;;;135676;1296;22097;-80
2024/02/17 05:47:16;;;;;;;14.20;11.40;;;;;;;;;;135672;1296;22166;-81
2024/02/17 05:50:17;;;;;;;13.00;10.50;;;;;;;;;;135686;1296;22125;-81
2024/02/17 05:53:18;;;;;;;15.80;11.40;;;;;;;;;;135700;1296;22511;-80
2024/02/17 05:56:20;;;;;;;15.00;11.10;;;;;;;;;;135713;1296;22169;-81
2024/02/17 05:59:21;;;;;;;14.30;11.30;;;;;;;;;;135801;1283;22190;-81
2024/02/17 06:02:22;;;;;;;17.40;10.90;;;;;;;;;;135846;1296;22136;-83
2024/02/17 06:05:23;;;;;;;11.90;9.60;;;;;;;;;;135851;1286;22126;-81
2024/02/17 06:08:25;;;;;;;15.10;10.30;;;;;;;;;;135908;1296;22128;-81
2024/02/17 06:11:26;;;;;;;15.50;9.50;;;;;;;;;;135810;1296;22127;-81
2024/02/17 06:14:27;;;;;;;14.50;10.80;;;;;;;;;;135723;1296;22268;-81
2024/02/17 06:17:28;;;;;;;18.50;10.50;;;;;;;;;;135706;1296;22196;-83
2024/02/17 06:23:51;;;;;;;13.90;10.80;;;;;;;;;;135713;1296;22139;-83
2024/02/17 06:26:52;;;;;;;12.00;9.40;;;;;;;;;;135714;1296;22106;-82
2024/02/17 06:29:53;;;;;;;10.90;9.60;;;;;;;;;;135760;1296;22143;-83
2024/02/17 06:32:55;;;;;;;12.30;9.90;;;;;;;;;;135766;1296;22112;-82
2024/02/17 06:35:56;;;;;;;13.50;9.60;;;;;;;;;;135757;1296;22162;-83
2024/02/17 06:38:57;;;;;;;11.00;9.80;;;;;;;;;;135798;1296;22074;-82
2024/02/17 06:41:59;;;;;;;24.50;9.80;;;;;;;;;;135810;1285;22135;-83
2024/02/17 06:45:00;;;;;;;14.20;10.90;;;;;;;;;;135778;1296;22561;-83
2024/02/17 06:48:01;;;;;;;14.50;10.20;;;;;;;;;;135813;1296;22454;-82
2024/02/17 06:51:02;;;;;;;13.70;9.60;;;;;;;;;;135809;1296;22176;-82
2024/02/17 06:54:03;;;;;;;12.40;10.40;;;;;;;;;;135829;1296;22136;-78
2024/02/17 06:57:05;;;;;;;14.00;11.70;;;;;;;;;;135910;1293;22134;-81
2024/02/17 07:00:06;;;;;;;14.50;11.40;;;;;;;;;;135833;1296;22091;-80
2024/02/17 07:03:07;;;;;;;15.20;12.30;;;;;;;;;;135903;1281;22061;-80
2024/02/17 07:06:08;;;;;;;15.30;11.90;;;;;;;;;;135862;1296;22057;-80
2024/02/17 07:09:14;;;;;;;15.90;13.00;;;;;;;;;;135838;1296;22502;-80
2024/02/17 07:12:15;;;;;;;16.70;12.10;;;;;;;;;;135885;1296;22137;-80
2024/02/17 07:15:16;;;;;;;17.70;14.00;;;;;;;;;;135852;1293;22569;-79
2024/02/17 07:18:18;;;;;;;18.80;14.70;;;;;;;;;;135665;1296;22083;-80
2024/02/17 07:21:19;;;;;;;26.50;16.00;;;;;;;;;;135853;1296;22138;-80
2024/02/17 07:24:23;;;;;;;20.20;15.90;;;;;;;;;;135847;1296;22148;-80
2024/02/17 07:27:25;;;;;;;19.20;15.00;;;;;;;;;;135856;1296;22197;-80
2024/02/17 07:30:27;;;;;;;21.90;15.80;;;;;;;;;;135828;1296;22174;-80
2024/02/17 07:33:28;;;;;;;19.00;13.70;;;;;;;;;;135851;1296;22510;-79
2024/02/17 07:36:29;;;;;;;21.20;15.90;;;;;;;;;;135828;1296;22195;-79
2024/02/17 07:39:30;;;;;;;20.20;17.30;;;;;;;;;;135860;1296;22101;-80
2024/02/17 07:42:32;;;;;;;20.70;15.40;;;;;;;;;;135871;1296;22123;-82
2024/02/17 07:45:33;;;;;;;17.60;14.30;;;;;;;;;;135877;1296;22143;-80
2024/02/17 07:48:34;;;;;;;20.60;15.60;;;;;;;;;;135851;1296;22726;-80
2024/02/17 07:51:38;;;;;;;22.00;17.30;;;;;;;;;;135801;1296;22116;-80
2024/02/17 07:54:39;;;;;;;22.70;17.60;;;;;;;;;;135897;1296;22155;-80
2024/02/17 07:57:40;;;;;;;20.20;15.70;;;;;;;;;;135937;1296;22132;-80
2024/02/17 08:00:41;;;;;;;18.80;14.70;;;;;;;;;;135954;1296;22065;-80
2024/02/17 08:03:42;;;;;;;21.90;16.00;;;;;;;;;;136126;1296;22216;-80
2024/02/17 08:09:43;;;;;;;22.80;16.00;;;;;;;;;;133440;1301;544948;-80
2024/02/17 08:12:44;;;;;;;20.70;15.80;;;;;;;;;;135966;1287;22563;-80
2024/02/17 08:15:45;;;;;;;19.80;15.30;;;;;;;;;;136118;1287;22615;-80
2024/02/17 08:18:46;;;;;;;19.60;14.60;;;;;;;;;;136236;1287;22176;-79
2024/02/17 08:21:47;;;;;;;23.50;16.00;;;;;;;;;;135814;1285;244786;-79
2024/02/17 08:24:49;;;;;;;20.20;14.80;;;;;;;;;;135979;1285;22471;-80
2024/02/17 08:27:50;;;;;;;20.10;14.10;;;;;;;;;;136449;1285;22185;-80
2024/02/17 08:30:53;;;;;;;18.00;14.20;;;;;;;;;;135935;1285;22260;-79
2024/02/17 08:33:54;;;;;;;21.80;16.00;;;;;;;;;;135718;1285;22267;-79
2024/02/17 08:36:55;;;;;;;23.30;18.60;;;;;;;;;;136539;1285;22145;-80
2024/02/17 08:39:56;;;;;;;21.50;16.70;;;;;;;;;;135938;1274;22257;-80
2024/02/17 08:42:58;;;;;;;26.40;17.40;;;;;;;;;;135998;1285;22484;-79
2024/02/17 08:45:59;;;;;;;26.50;20.80;;;;;;;;;;137295;1273;22546;-80
2024/02/17 08:49:00;;;;;;;24.50;19.30;;;;;;;;;;137162;1273;22572;-80
2024/02/17 08:52:01;;;;;;;26.10;20.60;;;;;;;;;;137300;1273;22244;-80
2024/02/17 08:55:02;;;;;;;28.20;20.20;;;;;;;;;;137070;1273;25459;-80
2024/02/17 08:58:03;;;;;;;29.20;20.30;;;;;;;;;;137394;1273;22310;-80
2024/02/17 09:01:05;;;;;;;28.60;21.50;;;;;;;;;;137398;1273;22432;-80
2024/02/17 09:04:06;;;;;;;24.20;19.20;;;;;;;;;;136881;1273;23162;-79
2024/02/17 09:07:08;;;;;;;28.90;21.90;;;;;;;;;;137511;1273;22213;-80
2024/02/17 09:10:15;;;;;;;25.90;18.30;;;;;;;;;;136932;1273;23086;-79
2024/02/17 09:13:16;;;;;;;27.90;21.00;;;;;;;;;;136831;1273;22174;-79
2024/02/17 09:16:17;;;;;;;24.50;19.60;;;;;;;;;;137398;1273;22531;-81
2024/02/17 09:19:19;;;;;;;29.60;21.10;;;;;;;;;;137020;1273;23180;-81
2024/02/17 09:22:20;;;;;;;25.70;19.80;;;;;;;;;;136946;1273;22137;-80
2024/02/17 09:25:22;;;;;;;28.60;21.40;;;;;;;;;;137295;1273;22532;-79
2024/02/17 09:28:23;;;;;;;25.30;17.50;;;;;;;;;;137293;1273;22188;-79
2024/02/17 09:31:24;;;;;;;29.70;20.80;;;;;;;;;;137487;1273;22686;-79
2024/02/17 09:34:26;;;;;;;23.20;16.50;;;;;;;;;;137553;1273;22177;-79
2024/02/17 09:37:27;;;;;;;30.60;21.10;;;;;;;;;;137514;1273;22688;-79
2024/02/17 09:40:28;;;;;;;31.30;20.70;;;;;;;;;;137205;1273;22746;-78
2024/02/17 09:43:30;;;;;;;26.90;20.80;;;;;;;;;;137153;1273;22546;-79
2024/02/17 09:46:31;;;;;;;24.70;20.70;;;;;;;;;;137539;1273;22225;-82
2024/02/17 09:49:32;;;;;;;27.00;21.10;;;;;;;;;;137535;1273;22789;-79
2024/02/17 09:52:34;;;;;;;26.10;20.10;;;;;;;;;;136913;1273;22297;-79
2024/02/17 09:55:36;;;;;;;24.00;19.60;;;;;;;;;;137486;1273;22122;-79
2024/02/17 09:58:38;;;;;;;24.80;19.20;;;;;;;;;;137241;1273;22258;-79
2024/02/17 10:01:39;;;;;;;22.60;18.80;;;;;;;;;;137370;1273;22209;-78
2024/02/17 10:04:40;;;;;;;22.60;18.10;;;;;;;;;;136964;1273;22651;-79
2024/02/17 10:07:41;;;;;;;22.00;18.50;;;;;;;;;;137417;1273;22253;-80
2024/02/17 10:10:43;;;;;;;26.60;20.00;;;;;;;;;;137064;1273;22209;-79
2024/02/17 10:13:44;;;;;;;21.80;18.70;;;;;;;;;;136904;1273;22543;-80
2024/02/17 10:16:45;;;;;;;20.90;18.00;;;;;;;;;;137456;1273;22210;-80
2024/02/17 10:19:46;;;;;;;22.70;18.10;;;;;;;;;;137510;1269;22311;-79
2024/02/17 10:22:47;;;;;;;17.20;15.10;;;;;;;;;;137512;1273;22221;-79
2024/02/17 10:25:49;;;;;;;17.30;15.50;;;;;;;;;;137533;1273;22120;-79
2024/02/17 10:28:50;;;;;;;17.70;15.90;;;;;;;;;;137517;1273;22234;-80
2024/02/17 10:31:51;;;;;;;16.50;14.60;;;;;;;;;;137535;1273;22238;-80
2024/02/17 10:34:55;;;;;;;20.40;16.30;;;;;;;;;;137536;1273;22526;-80
2024/02/17 10:37:56;;;;;;;15.40;13.60;;;;;;;;;;137452;1273;22887;-79
2024/02/17 10:40:57;;;;;;;16.50;14.80;;;;;;;;;;137520;1273;22174;-80
2024/02/17 10:43:58;;;;;;;16.30;14.40;;;;;;;;;;137528;1273;22225;-80
2024/02/17 10:46:59;;;;;;;22.40;17.30;;;;;;;;;;137465;1273;22318;-80
2024/02/17 10:50:00;;;;;;;19.00;16.80;;;;;;;;;;137180;1273;22203;-80
2024/02/17 10:53:01;;;;;;;18.60;16.60;;;;;;;;;;137487;1273;22333;-80
2024/02/17 10:56:03;;;;;;;16.90;14.70;;;;;;;;;;137456;1273;22165;-80
2024/02/17 10:59:04;;;;;;;20.50;15.60;;;;;;;;;;137521;1269;22195;-80
2024/02/17 11:02:05;;;;;;;16.80;14.30;;;;;;;;;;137466;1266;22332;-80
2024/02/17 11:05:07;;;;;;;17.70;14.20;;;;;;;;;;137505;1273;22487;-80
2024/02/17 11:08:08;;;;;;;15.60;13.90;;;;;;;;;;137344;1273;22194;-80
2024/02/17 11:11:09;;;;;;;17.50;15.70;;;;;;;;;;136840;1273;22227;-79
2024/02/17 11:14:10;;;;;;;20.00;17.10;;;;;;;;;;137516;1273;22111;-80
2024/02/17 11:17:11;;;;;;;16.70;14.50;;;;;;;;;;137532;1273;22268;-79
2024/02/17 11:20:13;;;;;;;18.60;15.50;;;;;;;;;;137610;1273;22231;-79
2024/02/17 11:23:14;;;;;;;18.40;15.60;;;;;;;;;;137560;1273;22178;-78
2024/02/17 11:26:15;;;;;;;19.00;17.00;;;;;;;;;;137533;1273;22274;-78
2024/02/17 11:29:16;;;;;;;18.50;15.40;;;;;;;;;;137540;1273;22207;-79
2024/02/17 11:32:17;;;;;;;20.40;16.00;;;;;;;;;;137536;1273;22192;-79
2024/02/17 11:35:18;;;;;;;22.20;18.30;;;;;;;;;;137519;1273;22122;-79
2024/02/17 11:38:24;;;;;;;21.70;17.30;;;;;;;;;;137503;1273;22158;-79
2024/02/17 11:41:25;;;;;;;17.80;15.40;;;;;;;;;;137497;1273;22282;-78
2024/02/17 11:44:26;;;;;;;18.60;16.30;;;;;;;;;;137493;1273;22559;-80
2024/02/17 11:47:29;;;;;;;23.00;17.50;;;;;;;;;;137413;1273;22712;-80
2024/02/17 11:50:31;;;;;;;24.50;18.30;;;;;;;;;;137436;1273;22787;-80
2024/02/17 11:53:32;;;;;;;21.90;18.00;;;;;;;;;;137083;1273;22559;-80
2024/02/17 11:56:33;;;;;;;19.70;17.60;;;;;;;;;;137424;1273;22229;-80
2024/02/17 11:59:35;;;;;;;19.10;16.90;;;;;;;;;;137473;1273;22208;-80
2024/02/17 12:02:36;;;;;;;18.80;16.60;;;;;;;;;;136939;1273;22721;-80
2024/02/17 12:05:37;;;;;;;19.90;17.70;;;;;;;;;;137503;1273;22240;-80
2024/02/17 12:08:40;;;;;;;19.80;17.30;;;;;;;;;;137491;1273;22384;-79
2024/02/17 12:11:41;;;;;;;22.70;17.60;;;;;;;;;;137512;1273;22815;-79
2024/02/17 12:14:42;;;;;;;22.50;17.90;;;;;;;;;;137122;1273;22528;-78
2024/02/17 12:17:43;;;;;;;22.10;19.10;;;;;;;;;;137258;1273;22269;-79
2024/02/17 12:20:44;;;;;;;26.30;19.20;;;;;;;;;;137052;1273;22967;-80
2024/02/17 12:23:46;;;;;;;22.90;17.40;;;;;;;;;;136959;1273;22532;-80
2024/02/17 12:26:50;;;;;;;21.70;17.50;;;;;;;;;;137536;1273;22858;-81
2024/02/17 12:29:51;;;;;;;23.20;19.00;;;;;;;;;;136888;1273;22207;-81
2024/02/17 12:32:52;;;;;;;27.90;20.90;;;;;;;;;;137273;1273;22414;-78
2024/02/17 12:35:53;;;;;;;30.70;20.60;;;;;;;;;;137405;1273;22887;-79
2024/02/17 12:38:54;;;;;;;23.00;17.60;;;;;;;;;;137484;1273;22573;-79
2024/02/17 12:41:56;;;;;;;24.00;17.40;;;;;;;;;;137490;1273;23730;-79
2024/02/17 12:44:57;;;;;;;22.60;16.30;;;;;;;;;;137460;1273;22594;-79
2024/02/17 12:47:58;;;;;;;23.10;17.10;;;;;;;;;;137456;1273;22222;-79
2024/02/17 12:50:59;;;;;;;26.40;18.60;;;;;;;;;;137478;1273;22594;-78
2024/02/17 12:54:01;;;;;;;31.80;20.80;;;;;;;;;;137506;1273;22588;-79
2024/02/17 12:57:02;;;;;;;28.50;20.20;;;;;;;;;;137479;1273;22217;-81
2024/02/17 13:00:03;;;;;;;21.50;16.70;;;;;;;;;;137064;1257;22404;-82
2024/02/17 13:03:04;;;;;;;14.90;12.00;;;;;;;;;;137491;1273;22470;-79
2024/02/17 13:06:06;;;;;;;26.60;17.60;;;;;;;;;;137498;1273;22585;-79
2024/02/17 13:09:08;;;;;;;13.70;11.50;;;;;;;;;;137053;1273;22207;-80
2024/02/17 13:12:09;;;;;;;14.20;11.30;;;;;;;;;;136897;1273;22685;-80
2024/02/17 13:15:12;;;;;;;13.10;11.40;;;;;;;;;;137504;1273;22157;-80
2024/02/17 13:18:13;;;;;;;14.90;12.30;;;;;;;;;;137397;1273;22167;-81
2024/02/17 13:21:14;;;;;;;14.80;11.50;;;;;;;;;;137223;1273;22178;-81
2024/02/17 13:24:15;;;;;;;13.70;11.10;;;;;;;;;;137078;1273;22548;-81
2024/02/17 13:27:19;;;;;;;10.20;9.20;;;;;;;;;;137321;1273;22217;-81
2024/02/17 13:30:20;;;;;;;15.40;11.90;;;;;;;;;;136993;1273;22287;-78
2024/02/17 13:33:22;;;;;;;14.60;11.90;;;;;;;;;;136928;1273;22211;-79
2024/02/17 13:36:23;;;;;;;16.80;13.30;;;;;;;;;;137558;1273;22419;-79
2024/02/17 13:39:24;;;;;;;17.00;13.00;;;;;;;;;;136981;1273;22312;-81
2024/02/17 13:42:25;;;;;;;14.20;11.50;;;;;;;;;;136936;1273;22251;-80
2024/02/17 13:45:26;;;;;;;11.60;10.30;;;;;;;;;;137410;1273;22595;-81
2024/02/17 13:48:27;;;;;;;14.30;10.40;;;;;;;;;;137069;1273;22275;-79
2024/02/17 13:51:29;;;;;;;13.90;10.10;;;;;;;;;;136965;1273;22184;-80
2024/02/17 13:54:30;;;;;;;13.60;9.60;;;;;;;;;;137541;1273;22522;-80
2024/02/17 13:57:32;;;;;;;10.00;8.70;;;;;;;;;;137513;1273;22675;-80
2024/02/17 14:00:33;;;;;;;10.30;8.50;;;;;;;;;;137146;1273;22121;-80
2024/02/17 14:03:34;;;;;;;9.90;8.40;;;;;;;;;;136894;1273;22546;-79
2024/02/17 14:06:35;;;;;;;10.50;8.90;;;;;;;;;;137540;1273;22245;-80
2024/02/17 14:09:37;;;;;;;12.10;10.00;;;;;;;;;;137232;1273;22201;-79
2024/02/17 14:12:38;;;;;;;12.50;10.80;;;;;;;;;;136894;1273;22547;-80
2024/02/17 14:15:39;;;;;;;17.90;13.00;;;;;;;;;;137195;1273;22802;-80
2024/02/17 14:18:40;;;;;;;16.50;11.90;;;;;;;;;;136960;1273;22279;-80
2024/02/17 14:21:42;;;;;;;18.90;13.70;;;;;;;;;;136882;1263;22275;-81
2024/02/17 14:24:43;;;;;;;18.70;13.00;;;;;;;;;;137240;1273;22551;-81
2024/02/17 14:27:44;;;;;;;17.30;12.20;;;;;;;;;;137100;1273;22407;-81
2024/02/17 14:30:45;;;;;;;17.40;11.50;;;;;;;;;;137180;1273;22533;-80
2024/02/17 14:33:46;;;;;;;15.40;10.70;;;;;;;;;;137111;1273;22546;-80
2024/02/17 14:36:48;;;;;;;15.00;11.50;;;;;;;;;;137485;1273;22565;-80
2024/02/17 14:39:49;;;;;;;15.70;11.10;;;;;;;;;;137146;1273;22182;-80
2024/02/17 14:42:51;;;;;;;19.70;13.60;;;;;;;;;;136982;1273;22547;-80
2024/02/17 14:45:52;;;;;;;23.30;15.60;;;;;;;;;;137627;1273;22128;-80
2024/02/17 14:48:54;;;;;;;26.60;17.20;;;;;;;;;;137293;1273;22186;-81
2024/02/17 14:51:55;;;;;;;22.60;15.40;;;;;;;;;;137105;1273;22862;-80
2024/02/17 14:54:56;;;;;;;17.50;13.30;;;;;;;;;;137586;1273;22256;-80
2024/02/17 14:57:57;;;;;;;17.70;12.00;;;;;;;;;;137273;1273;25400;-80
2024/02/17 15:00:58;;;;;;;15.60;11.80;;;;;;;;;;137102;1273;22248;-79
2024/02/17 15:03:59;;;;;;;15.80;10.60;;;;;;;;;;137201;1267;22645;-80
2024/02/17 15:07:00;;;;;;;36.80;31.20;;;;;;;;;;137232;1273;22188;-80
2024/02/17 15:10:02;;;;;;;22.50;16.80;;;;;;;;;;137007;1273;22364;-81
2024/02/17 15:13:04;;;;;;;84.30;58.70;;;;;;;;;;137034;1273;22903;-81
2024/02/17 15:16:06;;;;;;;24.80;18.00;;;;;;;;;;137383;1273;22314;-80
2024/02/17 15:19:07;;;;;;;45.00;32.30;;;;;;;;;;136965;1273;22233;-81
2024/02/17 15:22:08;;;;;;;26.60;16.40;;;;;;;;;;137088;1273;22212;-80
2024/02/17 15:25:09;;;;;;;31.80;20.30;;;;;;;;;;137511;1273;22243;-81
2024/02/17 15:28:10;;;;;;;82.00;60.20;;;;;;;;;;137024;1273;22205;-81
2024/02/17 15:31:11;;;;;;;171.80;145.50;;;;;;;;;;137058;1273;22793;-83
2024/02/17 15:34:12;;;;;;;68.80;52.00;;;;;;;;;;136922;1273;22221;-81
2024/02/17 15:37:14;;;;;;;30.00;20.50;;;;;;;;;;136835;1266;22129;-83
2024/02/17 15:40:15;;;;;;;26.00;19.00;;;;;;;;;;137080;1273;22633;-83
2024/02/17 15:43:17;;;;;;;23.30;16.00;;;;;;;;;;137510;1273;22188;-82
2024/02/17 15:46:18;;;;;;;15.90;11.10;;;;;;;;;;136798;1273;22674;-82
2024/02/17 15:49:21;;;;;;;11.70;8.30;;;;;;;;;;136761;1273;22541;-83
2024/02/17 15:52:22;;;;;;;9.70;7.40;;;;;;;;;;137459;1273;22546;-82
2024/02/17 15:55:24;;;;;;;13.40;8.60;;;;;;;;;;136982;1273;22859;-82
2024/02/17 15:58:27;;;;;;;13.70;8.90;;;;;;;;;;137025;1273;22665;-82
2024/02/17 16:01:28;;;;;;;13.60;8.30;;;;;;;;;;137354;1273;22603;-83
2024/02/17 16:04:30;;;;;;;13.40;11.40;;;;;;;;;;136875;1273;22575;-82
2024/02/17 16:07:32;;;;;;;20.30;11.50;;;;;;;;;;137014;1273;22222;-82
2024/02/17 16:10:33;;;;;;;12.90;8.90;;;;;;;;;;137463;1273;22669;-81
2024/02/17 16:13:34;;;;;;;25.20;15.10;;;;;;;;;;137022;1273;22372;-82
2024/02/17 16:16:35;;;;;;;20.90;15.40;;;;;;;;;;136896;1273;22159;-82
2024/02/17 16:19:36;;;;;;;17.40;12.20;;;;;;;;;;137334;1273;22543;-82
2024/02/17 16:22:40;;;;;;;10.20;7.80;;;;;;;;;;137065;1273;22293;-82
2024/02/17 16:25:41;;;;;;;12.00;7.80;;;;;;;;;;137022;1273;22270;-82
2024/02/17 16:28:43;;;;;;;14.00;9.30;;;;;;;;;;137590;1273;22207;-82
2024/02/17 16:31:45;;;;;;;14.60;8.00;;;;;;;;;;137131;1273;22204;-82
2024/02/17 16:34:49;;;;;;;14.40;8.70;;;;;;;;;;137080;1273;22609;-83
2024/02/17 16:37:50;;;;;;;15.40;9.10;;;;;;;;;;137398;1270;22309;-82
2024/02/17 16:40:51;;;;;;;11.10;8.80;;;;;;;;;;137111;1261;22212;-83
2024/02/17 16:43:52;;;;;;;11.60;7.70;;;;;;;;;;137041;1273;25409;-81
2024/02/17 16:46:54;;;;;;;11.80;7.80;;;;;;;;;;137555;1273;22381;-83
2024/02/17 16:49:55;;;;;;;15.80;9.90;;;;;;;;;;137126;1273;22497;-82
2024/02/17 16:52:56;;;;;;;17.60;11.20;;;;;;;;;;137058;1267;22623;-81
2024/02/17 16:55:57;;;;;;;20.20;11.80;;;;;;;;;;137402;1273;22542;-81
2024/02/17 16:58:58;;;;;;;18.80;10.80;;;;;;;;;;137062;1273;22832;-81
2024/02/17 17:02:00;;;;;;;17.80;9.70;;;;;;;;;;137042;1273;22217;-81
2024/02/17 17:05:01;;;;;;;17.60;10.60;;;;;;;;;;137432;1273;22173;-81
2024/02/17 17:08:06;;;;;;;25.40;12.10;;;;;;;;;;137140;1273;22266;-82
2024/02/17 17:11:08;;;;;;;23.50;13.30;;;;;;;;;;137062;1273;22249;-82
2024/02/17 17:14:09;;;;;;;24.90;13.40;;;;;;;;;;137452;1273;22534;-82
2024/02/17 17:17:10;;;;;;;24.70;13.90;;;;;;;;;;137472;1273;22261;-81
2024/02/17 17:20:12;;;;;;;21.40;13.70;;;;;;;;;;137618;1273;22280;-82
2024/02/17 17:23:13;;;;;;;19.80;13.70;;;;;;;;;;137508;1273;22833;-81
2024/02/17 17:26:14;;;;;;;20.70;14.20;;;;;;;;;;137495;1273;22450;-82
2024/02/17 17:29:15;;;;;;;23.10;13.70;;;;;;;;;;137231;1263;22735;-82